Reklama

Seznam meteostanic a jejich METAR

Vyhledat místa podle abecedy:
A B C D E F G H I J K L M N O P Q R S T U V W X Y Z

Filtrovat:

ID stanice:
a/nebo
Název místa (fulltext):
 
Místo (ID)Naposledy načteno 
Červená - Opava (Cervena/uL) 19.11.2018 00:00 UTC Zobrazit data
Místo: Červená - Opava
Teplota: -4 °C (pocitová: -16.1 °C)
Vítr: 7 m/s z(e) 40°
Počasí: sněží
Dohlednost: 4100 m
Zákl. oblačnosti: 7/8 1410 m;8/8 1800 m
Vlhkost: 86%
České Budějovice (C.Budej/po) 19.11.2018 00:00 UTC Zobrazit data
Místo: České Budějovice
Teplota: 0 °C (pocitová: -4.3 °C)
Vítr: 1 m/s z(e) 320°
Počasí: skoro zataženo
Dohlednost: 1600 m
Zákl. oblačnosti: 1/8 630 m;5/8 960 m
Vlhkost: 100%
Cheb (Cheb) 19.11.2018 00:00 UTC Zobrazit data
Místo: Cheb
Teplota: 0 °C (pocitová: -4.3 °C)
Vítr: 1 m/s z(e) 0°
Počasí: zataženo
Dohlednost: 35 km
Zákl. oblačnosti: 8/8 660 m
Vlhkost: 69%
Chotusice - Čáslav (Caslav) 19.11.2018 00:00 UTC Zobrazit data
Místo: Chotusice - Čáslav
Teplota: 0 °C (pocitová: -5.9 °C)
Vítr: 2 m/s z(e) 310°
Počasí: zataženo
Dohlednost: 10 km
Zákl. oblačnosti: 2/8 510 m;8/8 2100 m
Vlhkost: 64%
Churáňov (Churanov) 19.11.2018 00:00 UTC Zobrazit data
Místo: Churáňov
Teplota: -5 °C (pocitová: -14 °C)
Vítr: 3 m/s z(e) 40°
Počasí: sněží
Dohlednost: 3300 m
Zákl. oblačnosti: 8/8 30 m
Vlhkost: 93%
Cairo (HECA) 19.11.2018 00:00 UTC Zobrazit METAR
HECA 190000Z 04002KT 4000 BR NSC 19/15 Q1015 NOSIG
Canberra (YSCB) 19.11.2018 00:00 UTC Zobrazit METAR
YSCB 190000Z 04005KT 010V070 9999 FEW050 19/03 Q1021 NOSIG
Caracas (SVMP) Zatím nenačteno  
Cayenne (SOCA) 18.11.2018 19:00 UTC Zobrazit METAR
SOCA 181900Z AUTO 06013KT 9999 BKN021 BKN030 BKN052 29/24 Q1009 TEMPO 3000 SHRA FEW012TCU
Charlotte Amalie (TIST) 18.11.2018 23:53 UTC Zobrazit METAR
TIST 182353Z 08008KT 10SM CLR 27/22 A3001 RMK AO2 SLP162 T02670222 10300 20267 53013 $
Chisinau (LUKK) 19.11.2018 00:00 UTC Zobrazit METAR
LUKK 190000Z 03004KT 3000 BR FU OVC020 M01/M02 Q1022 R08/CLRD// NOSIG
Colombo (VCBI) 19.11.2018 00:10 UTC Zobrazit METAR
VCBI 190010Z 05003KT 8000 FEW016 24/22 Q1011 NOSIG
Conakry (GUCY) 18.11.2018 22:00 UTC Zobrazit METAR
GUCY 182200Z 00000KT 9999 FEW015 BKN110 29/19 Q1012 NOSIG
Constanta (LRCK) 19.11.2018 00:00 UTC Zobrazit METAR
LRCK 190000Z 02017KT 2000 RA BR BKN005 02/02 Q1015 R36/29//95 NOSIG
Constantine (DABC) 19.11.2018 00:00 UTC Zobrazit METAR
DABC 190000Z 05005KT 9999 FEW033 SCT100 11/07 Q1008
Copenhagen (EKCH) 18.11.2018 23:50 UTC Zobrazit METAR
EKCH 182350Z 03013KT 9999 FEW022 BKN025 05/02 Q1033 NOSIG
Cork (EICK) 19.11.2018 00:00 UTC Zobrazit METAR
EICK 190000Z 09015KT CAVOK 08/05 Q1022 NOSIG
Cotonou (DBBB) 19.11.2018 00:00 UTC Zobrazit METAR
DBBB 190000Z 25004KT 210V280 9999 FEW012 28/25 Q1010 NOSIG
Curacao Island (TNCC) 19.11.2018 00:00 UTC Zobrazit METAR
TNCC 190000Z AUTO 10013KT 9999 NSC 28/23 Q1011 NOSIG
Reklama

Počasí na Váš email

Emaily jsou bez reklamy a bez spamu



Odhlásit newsletter

Reklama


Lunární kalendář

  • 23.11.
  • 30.11.
  • 07.12.
  • 15.12.



Reklama


Reklama
Povinné ručení
Reklama



Reklama